Airfield :
LOGIN :

Register | Disclaimer

   EN    FR    IT 

 










Legend :    VFR   Marginal VFR   IFR   Intensive IFR   Very Intensive IFR
Visi :
Ceiling :
>= 8 km
>= 3000ft
5 to 8 km
1000 to 3000 ft
1500m to 5 km
500 to 1000 ft
800 to 1500m
200 to 500 ft
< 800m
< 200 ft
Symbols :   Thunderstorms  Fog  Heavy snow  Heavy precipitations  Wind > 20 kt
SIGMETs :     Misc.  Thunderstorms  Icing  Turbulence  Mountain Waves  Volcanic Ashes






- Airport Elevation : 2595 ft
- IATA code : SLM


LESA - Salamanca Matacan

CURRENT METAR :
  • 190730Z VRB02KT 9999 FEW010 13/11 Q1016

EXPIRED METARs :
  • 190700Z 00000KT 9999 FEW005 12/11 Q1015
  • 190630Z 00000KT 9999 FEW005 11/10 Q1015
  • 190600Z 00000KT 9999 FEW005 10/09 Q1015
  • 190530Z 00000KT 7000 1500N BCFG FEW025 08/08 Q1015
  • 190500Z 00000KT 3000 0700N BCFG FEW025 07/07 Q1015
  • 190430Z AUTO 15003KT 0300 R21/0900U FG VV/// 08/08 Q1015
  • 190400Z AUTO 00000KT 0300 R21/0650N FG VV001 08/08 Q1015
  • 190330Z AUTO 00000KT 0250 R21/0400D FG FEW002 09/09 Q1015
  • 190300Z AUTO 00000KT 3300 -RA BR NSC 09/09 Q1015

TAF TAF LESA
Valid from the 19 at 03:00 until the 20 at 03:00 UTC


190200Z 1903/2003 24006KT 9999 BKN045 TX21/1914Z TN07/1905Z
PROB30
TEMPO 1904/1909 4000 BR BKN004
PROB40
TEMPO 1912/1919 4000 TSRA SHRA SCT025CB



MET'MAP, your aeronautical weather chart ! - Copyright ORBIFLY December 2007 - Disclaimer

ORBIFLY MET'MAP TEAM :

Programming & Development : Alexandra Zaïnal
Original concept : Baudouin d'Aumeries
Technical & hardware support : Manuel Goepfert
Assistance : Marc-Olivier Méhu




SOURCES & CREDITS :

   NOAA